sensor_id;sensor_type;location;lat;lon;timestamp;P1;durP1;ratioP1;P2;durP2;ratioP2
21943;SDS011;11136;48.778;9.126;2023-02-03T00:00:57;2.17;;;0.93;;
21943;SDS011;11136;48.778;9.126;2023-02-03T00:03:22;1.42;;;0.77;;
21943;SDS011;11136;48.778;9.126;2023-02-03T00:05:48;1.77;;;1.02;;
21943;SDS011;11136;48.778;9.126;2023-02-03T00:08:14;1.25;;;0.70;;
21943;SDS011;11136;48.778;9.126;2023-02-03T00:10:41;1.00;;;0.52;;
21943;SDS011;11136;48.778;9.126;2023-02-03T00:13:07;0.68;;;0.60;;
21943;SDS011;11136;48.778;9.126;2023-02-03T00:15:33;0.52;;;0.52;;
21943;SDS011;11136;48.778;9.126;2023-02-03T00:17:58;0.70;;;0.60;;
21943;SDS011;11136;48.778;9.126;2023-02-03T00:20:24;1.95;;;1.05;;
21943;SDS011;11136;48.778;9.126;2023-02-03T00:22:50;0.50;;;0.43;;
21943;SDS011;11136;48.778;9.126;2023-02-03T00:25:16;1.65;;;0.55;;
21943;SDS011;11136;48.778;9.126;2023-02-03T00:27:42;1.08;;;0.65;;
21943;SDS011;11136;48.778;9.126;2023-02-03T00:30:09;0.60;;;0.60;;
21943;SDS011;11136;48.778;9.126;2023-02-03T00:32:36;0.75;;;0.50;;
21943;SDS011;11136;48.778;9.126;2023-02-03T00:35:02;0.40;;;0.40;;
21943;SDS011;11136;48.778;9.126;2023-02-03T00:37:28;3.70;;;0.80;;
21943;SDS011;11136;48.778;9.126;2023-02-03T00:39:53;0.50;;;0.50;;
21943;SDS011;11136;48.778;9.126;2023-02-03T00:42:19;0.60;;;0.60;;
21943;SDS011;11136;48.778;9.126;2023-02-03T00:44:45;0.50;;;0.50;;
21943;SDS011;11136;48.778;9.126;2023-02-03T00:47:10;0.32;;;0.32;;
21943;SDS011;11136;48.778;9.126;2023-02-03T00:49:36;1.00;;;0.68;;
21943;SDS011;11136;48.778;9.126;2023-02-03T00:52:02;2.42;;;0.70;;
21943;SDS011;11136;48.778;9.126;2023-02-03T00:54:27;0.60;;;0.60;;
21943;SDS011;11136;48.778;9.126;2023-02-03T00:56:53;0.40;;;0.40;;
21943;SDS011;11136;48.778;9.126;2023-02-03T00:59:18;0.45;;;0.45;;
21943;SDS011;11136;48.778;9.126;2023-02-03T01:01:44;0.77;;;0.70;;
21943;SDS011;11136;48.778;9.126;2023-02-03T01:04:10;1.90;;;0.52;;
21943;SDS011;11136;48.778;9.126;2023-02-03T01:06:35;0.30;;;0.30;;
21943;SDS011;11136;48.778;9.126;2023-02-03T01:09:01;0.50;;;0.50;;
21943;SDS011;11136;48.778;9.126;2023-02-03T01:11:27;1.52;;;0.60;;
21943;SDS011;11136;48.778;9.126;2023-02-03T01:13:54;1.35;;;0.50;;
21943;SDS011;11136;48.778;9.126;2023-02-03T01:16:21;2.10;;;0.88;;
21943;SDS011;11136;48.778;9.126;2023-02-03T01:18:48;0.65;;;0.60;;
21943;SDS011;11136;48.778;9.126;2023-02-03T01:21:16;0.70;;;0.70;;
21943;SDS011;11136;48.778;9.126;2023-02-03T01:23:43;8.25;;;1.67;;
21943;SDS011;11136;48.778;9.126;2023-02-03T01:26:11;0.93;;;0.80;;
21943;SDS011;11136;48.778;9.126;2023-02-03T01:28:38;0.75;;;0.60;;
21943;SDS011;11136;48.778;9.126;2023-02-03T01:31:11;1.35;;;0.88;;
21943;SDS011;11136;48.778;9.126;2023-02-03T01:33:38;2.72;;;0.65;;
21943;SDS011;11136;48.778;9.126;2023-02-03T01:36:05;0.73;;;0.70;;
21943;SDS011;11136;48.778;9.126;2023-02-03T01:38:32;0.75;;;0.70;;
21943;SDS011;11136;48.778;9.126;2023-02-03T01:40:58;1.15;;;0.80;;
21943;SDS011;11136;48.778;9.126;2023-02-03T01:43:28;2.05;;;0.60;;
21943;SDS011;11136;48.778;9.126;2023-02-03T01:45:55;0.83;;;0.53;;
21943;SDS011;11136;48.778;9.126;2023-02-03T01:48:22;1.40;;;0.65;;
21943;SDS011;11136;48.778;9.126;2023-02-03T01:50:47;1.45;;;0.98;;
21943;SDS011;11136;48.778;9.126;2023-02-03T01:53:13;1.00;;;0.70;;
21943;SDS011;11136;48.778;9.126;2023-02-03T01:55:40;0.77;;;0.75;;
21943;SDS011;11136;48.778;9.126;2023-02-03T01:58:31;1.00;;;0.77;;
21943;SDS011;11136;48.778;9.126;2023-02-03T02:00:58;1.48;;;1.00;;
21943;SDS011;11136;48.778;9.126;2023-02-03T02:03:25;1.63;;;1.00;;
21943;SDS011;11136;48.778;9.126;2023-02-03T02:05:58;0.80;;;0.73;;
21943;SDS011;11136;48.778;9.126;2023-02-03T02:08:29;0.90;;;0.80;;
21943;SDS011;11136;48.778;9.126;2023-02-03T02:10:56;1.38;;;1.00;;
21943;SDS011;11136;48.778;9.126;2023-02-03T02:13:23;3.08;;;1.20;;
21943;SDS011;11136;48.778;9.126;2023-02-03T02:24:57;0.80;;;0.80;;
21943;SDS011;11136;48.778;9.126;2023-02-03T02:30:17;1.23;;;1.10;;
21943;SDS011;11136;48.778;9.126;2023-02-03T02:33:00;1.65;;;0.98;;
21943;SDS011;11136;48.778;9.126;2023-02-03T02:35:49;1.33;;;1.10;;
21943;SDS011;11136;48.778;9.126;2023-02-03T02:38:37;3.28;;;1.40;;
21943;SDS011;11136;48.778;9.126;2023-02-03T02:44:08;2.80;;;0.95;;
21943;SDS011;11136;48.778;9.126;2023-02-03T02:46:55;2.90;;;0.93;;
21943;SDS011;11136;48.778;9.126;2023-02-03T02:52:13;4.55;;;1.27;;
21943;SDS011;11136;48.778;9.126;2023-02-03T02:54:41;1.85;;;0.93;;
21943;SDS011;11136;48.778;9.126;2023-02-03T02:57:12;1.35;;;0.90;;
21943;SDS011;11136;48.778;9.126;2023-02-03T02:59:39;2.45;;;1.23;;
21943;SDS011;11136;48.778;9.126;2023-02-03T03:02:04;0.82;;;0.75;;
21943;SDS011;11136;48.778;9.126;2023-02-03T03:04:30;1.85;;;1.00;;
21943;SDS011;11136;48.778;9.126;2023-02-03T03:07:05;1.10;;;1.00;;
21943;SDS011;11136;48.778;9.126;2023-02-03T03:12:16;2.35;;;1.05;;
21943;SDS011;11136;48.778;9.126;2023-02-03T03:14:49;1.02;;;0.80;;
21943;SDS011;11136;48.778;9.126;2023-02-03T03:17:23;1.30;;;0.98;;
21943;SDS011;11136;48.778;9.126;2023-02-03T03:19:56;1.23;;;0.63;;
21943;SDS011;11136;48.778;9.126;2023-02-03T03:22:27;1.48;;;0.70;;
21943;SDS011;11136;48.778;9.126;2023-02-03T03:25:02;0.80;;;0.80;;
21943;SDS011;11136;48.778;9.126;2023-02-03T03:27:42;1.52;;;0.70;;
21943;SDS011;11136;48.778;9.126;2023-02-03T03:30:14;1.15;;;1.00;;
21943;SDS011;11136;48.778;9.126;2023-02-03T03:32:44;1.35;;;0.77;;
21943;SDS011;11136;48.778;9.126;2023-02-03T03:35:10;1.23;;;0.70;;
21943;SDS011;11136;48.778;9.126;2023-02-03T03:42:53;0.43;;;0.43;;
21943;SDS011;11136;48.778;9.126;2023-02-03T03:45:34;1.00;;;0.70;;
21943;SDS011;11136;48.778;9.126;2023-02-03T03:48:35;1.83;;;1.05;;
21943;SDS011;11136;48.778;9.126;2023-02-03T03:51:10;2.40;;;0.80;;
21943;SDS011;11136;48.778;9.126;2023-02-03T03:53:40;1.48;;;0.60;;
21943;SDS011;11136;48.778;9.126;2023-02-03T03:56:09;1.23;;;0.65;;
21943;SDS011;11136;48.778;9.126;2023-02-03T03:58:39;0.85;;;0.50;;
21943;SDS011;11136;48.778;9.126;2023-02-03T04:01:10;2.70;;;0.77;;
21943;SDS011;11136;48.778;9.126;2023-02-03T04:03:58;1.15;;;0.88;;
21943;SDS011;11136;48.778;9.126;2023-02-03T04:06:27;4.00;;;0.80;;
21943;SDS011;11136;48.778;9.126;2023-02-03T04:08:53;0.63;;;0.57;;
21943;SDS011;11136;48.778;9.126;2023-02-03T04:11:19;0.82;;;0.60;;
21943;SDS011;11136;48.778;9.126;2023-02-03T04:14:19;1.70;;;0.63;;
21943;SDS011;11136;48.778;9.126;2023-02-03T04:16:45;0.47;;;0.38;;
21943;SDS011;11136;48.778;9.126;2023-02-03T04:19:11;1.35;;;0.60;;
21943;SDS011;11136;48.778;9.126;2023-02-03T04:21:37;3.03;;;0.82;;
21943;SDS011;11136;48.778;9.126;2023-02-03T04:24:03;1.80;;;0.52;;
21943;SDS011;11136;48.778;9.126;2023-02-03T04:26:29;0.65;;;0.50;;
21943;SDS011;11136;48.778;9.126;2023-02-03T04:28:54;0.80;;;0.80;;
21943;SDS011;11136;48.778;9.126;2023-02-03T04:31:20;0.57;;;0.40;;
21943;SDS011;11136;48.778;9.126;2023-02-03T04:33:45;0.40;;;0.40;;
21943;SDS011;11136;48.778;9.126;2023-02-03T04:36:11;0.28;;;0.28;;
21943;SDS011;11136;48.778;9.126;2023-02-03T04:38:36;1.45;;;0.43;;
21943;SDS011;11136;48.778;9.126;2023-02-03T04:41:02;0.40;;;0.40;;
21943;SDS011;11136;48.778;9.126;2023-02-03T04:43:28;0.55;;;0.47;;
21943;SDS011;11136;48.778;9.126;2023-02-03T04:45:53;1.10;;;0.50;;
21943;SDS011;11136;48.778;9.126;2023-02-03T04:48:19;1.80;;;0.43;;
21943;SDS011;11136;48.778;9.126;2023-02-03T04:50:44;0.80;;;0.40;;
21943;SDS011;11136;48.778;9.126;2023-02-03T04:53:10;0.47;;;0.43;;
21943;SDS011;11136;48.778;9.126;2023-02-03T04:55:36;0.30;;;0.30;;
21943;SDS011;11136;48.778;9.126;2023-02-03T04:58:01;0.55;;;0.43;;
21943;SDS011;11136;48.778;9.126;2023-02-03T05:00:27;0.30;;;0.30;;
21943;SDS011;11136;48.778;9.126;2023-02-03T05:02:53;0.38;;;0.35;;
21943;SDS011;11136;48.778;9.126;2023-02-03T05:05:19;2.42;;;0.57;;
21943;SDS011;11136;48.778;9.126;2023-02-03T05:07:45;0.60;;;0.60;;
21943;SDS011;11136;48.778;9.126;2023-02-03T05:10:11;2.38;;;0.50;;
21943;SDS011;11136;48.778;9.126;2023-02-03T05:12:37;0.40;;;0.40;;
21943;SDS011;11136;48.778;9.126;2023-02-03T05:15:02;0.75;;;0.73;;
21943;SDS011;11136;48.778;9.126;2023-02-03T05:17:28;0.57;;;0.50;;
21943;SDS011;11136;48.778;9.126;2023-02-03T05:19:54;0.57;;;0.57;;
21943;SDS011;11136;48.778;9.126;2023-02-03T05:22:20;0.38;;;0.38;;
21943;SDS011;11136;48.778;9.126;2023-02-03T05:24:45;0.55;;;0.50;;
21943;SDS011;11136;48.778;9.126;2023-02-03T05:27:11;0.40;;;0.40;;
21943;SDS011;11136;48.778;9.126;2023-02-03T05:29:36;0.75;;;0.73;;
21943;SDS011;11136;48.778;9.126;2023-02-03T05:32:02;0.50;;;0.50;;
21943;SDS011;11136;48.778;9.126;2023-02-03T05:34:28;1.63;;;0.60;;
21943;SDS011;11136;48.778;9.126;2023-02-03T05:36:53;0.73;;;0.50;;
21943;SDS011;11136;48.778;9.126;2023-02-03T05:39:19;2.30;;;0.65;;
21943;SDS011;11136;48.778;9.126;2023-02-03T05:41:46;0.47;;;0.47;;
21943;SDS011;11136;48.778;9.126;2023-02-03T05:44:21;2.40;;;0.68;;
21943;SDS011;11136;48.778;9.126;2023-02-03T05:46:48;0.90;;;0.50;;
21943;SDS011;11136;48.778;9.126;2023-02-03T05:49:16;0.75;;;0.50;;
21943;SDS011;11136;48.778;9.126;2023-02-03T05:51:41;1.25;;;0.63;;
21943;SDS011;11136;48.778;9.126;2023-02-03T05:54:07;1.70;;;0.60;;
21943;SDS011;11136;48.778;9.126;2023-02-03T05:56:34;0.63;;;0.40;;
21943;SDS011;11136;48.778;9.126;2023-02-03T05:59:00;1.00;;;0.75;;
21943;SDS011;11136;48.778;9.126;2023-02-03T06:01:25;1.77;;;0.70;;
21943;SDS011;11136;48.778;9.126;2023-02-03T06:03:51;2.30;;;0.50;;
21943;SDS011;11136;48.778;9.126;2023-02-03T06:06:17;1.35;;;1.13;;
21943;SDS011;11136;48.778;9.126;2023-02-03T06:08:42;1.05;;;0.50;;
21943;SDS011;11136;48.778;9.126;2023-02-03T06:11:08;0.98;;;0.60;;
21943;SDS011;11136;48.778;9.126;2023-02-03T06:13:35;1.00;;;0.70;;
21943;SDS011;11136;48.778;9.126;2023-02-03T06:16:01;2.08;;;0.60;;
21943;SDS011;11136;48.778;9.126;2023-02-03T06:18:27;3.92;;;0.70;;
21943;SDS011;11136;48.778;9.126;2023-02-03T06:20:53;2.40;;;0.65;;
21943;SDS011;11136;48.778;9.126;2023-02-03T06:23:18;0.90;;;0.70;;
21943;SDS011;11136;48.778;9.126;2023-02-03T06:25:47;0.75;;;0.65;;
21943;SDS011;11136;48.778;9.126;2023-02-03T06:28:14;2.20;;;0.80;;
21943;SDS011;11136;48.778;9.126;2023-02-03T06:30:40;0.80;;;0.57;;
21943;SDS011;11136;48.778;9.126;2023-02-03T06:33:06;1.45;;;0.73;;
21943;SDS011;11136;48.778;9.126;2023-02-03T06:35:32;1.77;;;0.52;;
21943;SDS011;11136;48.778;9.126;2023-02-03T06:37:58;1.20;;;0.60;;
21943;SDS011;11136;48.778;9.126;2023-02-03T06:40:24;2.17;;;0.90;;
21943;SDS011;11136;48.778;9.126;2023-02-03T06:42:50;2.50;;;0.82;;
21943;SDS011;11136;48.778;9.126;2023-02-03T06:45:16;1.42;;;0.70;;
21943;SDS011;11136;48.778;9.126;2023-02-03T06:47:42;1.45;;;0.88;;
21943;SDS011;11136;48.778;9.126;2023-02-03T06:50:10;3.88;;;2.15;;
21943;SDS011;11136;48.778;9.126;2023-02-03T06:52:37;2.58;;;1.42;;
21943;SDS011;11136;48.778;9.126;2023-02-03T06:55:03;1.67;;;0.77;;
21943;SDS011;11136;48.778;9.126;2023-02-03T06:57:30;4.13;;;0.90;;
21943;SDS011;11136;48.778;9.126;2023-02-03T06:59:56;7.25;;;1.10;;
21943;SDS011;11136;48.778;9.126;2023-02-03T07:02:22;0.80;;;0.57;;
21943;SDS011;11136;48.778;9.126;2023-02-03T07:04:47;1.02;;;0.93;;
21943;SDS011;11136;48.778;9.126;2023-02-03T07:07:13;4.15;;;1.08;;
21943;SDS011;11136;48.778;9.126;2023-02-03T07:09:39;1.35;;;0.60;;
21943;SDS011;11136;48.778;9.126;2023-02-03T07:12:05;1.15;;;0.93;;
21943;SDS011;11136;48.778;9.126;2023-02-03T07:14:32;1.92;;;0.82;;
21943;SDS011;11136;48.778;9.126;2023-02-03T07:17:00;3.17;;;0.88;;
21943;SDS011;11136;48.778;9.126;2023-02-03T07:19:27;4.40;;;0.90;;
21943;SDS011;11136;48.778;9.126;2023-02-03T07:21:52;2.92;;;0.93;;
21943;SDS011;11136;48.778;9.126;2023-02-03T07:24:18;1.65;;;1.10;;
21943;SDS011;11136;48.778;9.126;2023-02-03T07:26:44;1.55;;;0.90;;
21943;SDS011;11136;48.778;9.126;2023-02-03T07:29:09;1.38;;;0.80;;
21943;SDS011;11136;48.778;9.126;2023-02-03T07:31:35;1.10;;;1.00;;
21943;SDS011;11136;48.778;9.126;2023-02-03T07:34:02;4.03;;;0.93;;
21943;SDS011;11136;48.778;9.126;2023-02-03T07:36:28;2.60;;;1.50;;
21943;SDS011;11136;48.778;9.126;2023-02-03T07:38:54;1.15;;;0.75;;
21943;SDS011;11136;48.778;9.126;2023-02-03T07:41:19;1.60;;;1.10;;
21943;SDS011;11136;48.778;9.126;2023-02-03T07:43:45;1.77;;;0.70;;
21943;SDS011;11136;48.778;9.126;2023-02-03T07:46:11;2.22;;;1.10;;
21943;SDS011;11136;48.778;9.126;2023-02-03T07:48:37;2.25;;;0.80;;
21943;SDS011;11136;48.778;9.126;2023-02-03T07:51:03;2.28;;;0.93;;
21943;SDS011;11136;48.778;9.126;2023-02-03T07:53:28;2.40;;;1.20;;
21943;SDS011;11136;48.778;9.126;2023-02-03T07:55:54;1.73;;;1.10;;
21943;SDS011;11136;48.778;9.126;2023-02-03T07:58:24;2.65;;;1.30;;
21943;SDS011;11136;48.778;9.126;2023-02-03T08:00:49;2.67;;;1.10;;
21943;SDS011;11136;48.778;9.126;2023-02-03T08:03:15;1.75;;;1.25;;
21943;SDS011;11136;48.778;9.126;2023-02-03T08:05:40;1.95;;;1.27;;
21943;SDS011;11136;48.778;9.126;2023-02-03T08:08:06;0.80;;;0.80;;
21943;SDS011;11136;48.778;9.126;2023-02-03T08:10:32;3.08;;;1.10;;
21943;SDS011;11136;48.778;9.126;2023-02-03T08:12:57;5.07;;;1.60;;
21943;SDS011;11136;48.778;9.126;2023-02-03T08:15:23;1.95;;;1.30;;
21943;SDS011;11136;48.778;9.126;2023-02-03T08:17:49;3.95;;;1.80;;
21943;SDS011;11136;48.778;9.126;2023-02-03T08:20:15;4.03;;;1.52;;
21943;SDS011;11136;48.778;9.126;2023-02-03T08:22:41;5.50;;;1.58;;
21943;SDS011;11136;48.778;9.126;2023-02-03T08:25:07;3.80;;;1.40;;
21943;SDS011;11136;48.778;9.126;2023-02-03T08:27:33;3.13;;;1.45;;
21943;SDS011;11136;48.778;9.126;2023-02-03T08:29:58;1.88;;;1.25;;
21943;SDS011;11136;48.778;9.126;2023-02-03T08:32:25;5.05;;;1.50;;
21943;SDS011;11136;48.778;9.126;2023-02-03T08:34:51;2.65;;;1.58;;
21943;SDS011;11136;48.778;9.126;2023-02-03T08:37:18;3.80;;;1.50;;
21943;SDS011;11136;48.778;9.126;2023-02-03T08:39:48;3.40;;;1.55;;
21943;SDS011;11136;48.778;9.126;2023-02-03T08:42:13;2.78;;;1.40;;
21943;SDS011;11136;48.778;9.126;2023-02-03T08:44:39;6.50;;;1.70;;
21943;SDS011;11136;48.778;9.126;2023-02-03T08:47:05;4.43;;;1.55;;
21943;SDS011;11136;48.778;9.126;2023-02-03T08:49:31;2.58;;;1.42;;
21943;SDS011;11136;48.778;9.126;2023-02-03T08:51:59;2.28;;;1.27;;
21943;SDS011;11136;48.778;9.126;2023-02-03T08:54:25;2.40;;;1.50;;
21943;SDS011;11136;48.778;9.126;2023-02-03T08:56:51;2.95;;;1.40;;
21943;SDS011;11136;48.778;9.126;2023-02-03T08:59:17;1.63;;;1.40;;
21943;SDS011;11136;48.778;9.126;2023-02-03T09:01:43;3.30;;;1.67;;
21943;SDS011;11136;48.778;9.126;2023-02-03T09:04:10;8.73;;;1.70;;
21943;SDS011;11136;48.778;9.126;2023-02-03T09:06:39;4.40;;;1.40;;
21943;SDS011;11136;48.778;9.126;2023-02-03T09:09:05;2.08;;;1.40;;
21943;SDS011;11136;48.778;9.126;2023-02-03T09:11:30;5.63;;;2.05;;
21943;SDS011;11136;48.778;9.126;2023-02-03T09:13:56;2.00;;;1.35;;
21943;SDS011;11136;48.778;9.126;2023-02-03T09:16:22;2.92;;;1.52;;
21943;SDS011;11136;48.778;9.126;2023-02-03T09:18:48;3.15;;;1.67;;
21943;SDS011;11136;48.778;9.126;2023-02-03T09:21:15;3.30;;;2.13;;
21943;SDS011;11136;48.778;9.126;2023-02-03T09:23:42;5.55;;;1.60;;
21943;SDS011;11136;48.778;9.126;2023-02-03T09:26:09;2.10;;;1.25;;
21943;SDS011;11136;48.778;9.126;2023-02-03T09:28:36;2.10;;;1.45;;
21943;SDS011;11136;48.778;9.126;2023-02-03T09:31:04;1.75;;;1.10;;
21943;SDS011;11136;48.778;9.126;2023-02-03T09:33:31;5.78;;;1.55;;
21943;SDS011;11136;48.778;9.126;2023-02-03T09:35:56;3.13;;;1.60;;
21943;SDS011;11136;48.778;9.126;2023-02-03T09:38:23;4.97;;;1.50;;
21943;SDS011;11136;48.778;9.126;2023-02-03T09:40:57;3.05;;;1.35;;
21943;SDS011;11136;48.778;9.126;2023-02-03T09:43:34;3.05;;;1.42;;
21943;SDS011;11136;48.778;9.126;2023-02-03T09:46:23;6.28;;;1.38;;
21943;SDS011;11136;48.778;9.126;2023-02-03T09:48:52;4.75;;;1.58;;
21943;SDS011;11136;48.778;9.126;2023-02-03T09:51:24;2.28;;;1.77;;
21943;SDS011;11136;48.778;9.126;2023-02-03T09:53:57;2.15;;;1.67;;
21943;SDS011;11136;48.778;9.126;2023-02-03T09:56:30;3.08;;;1.75;;
21943;SDS011;11136;48.778;9.126;2023-02-03T09:58:58;3.97;;;1.35;;
21943;SDS011;11136;48.778;9.126;2023-02-03T10:01:29;5.28;;;2.22;;
21943;SDS011;11136;48.778;9.126;2023-02-03T10:04:21;1.58;;;1.10;;
21943;SDS011;11136;48.778;9.126;2023-02-03T10:07:11;2.60;;;1.17;;
21943;SDS011;11136;48.778;9.126;2023-02-03T10:17:56;1.30;;;1.02;;
21943;SDS011;11136;48.778;9.126;2023-02-03T10:20:30;2.58;;;1.05;;
21943;SDS011;11136;48.778;9.126;2023-02-03T10:23:14;1.58;;;0.90;;
21943;SDS011;11136;48.778;9.126;2023-02-03T10:25:51;2.08;;;0.88;;
21943;SDS011;11136;48.778;9.126;2023-02-03T10:28:20;1.33;;;0.80;;
21943;SDS011;11136;48.778;9.126;2023-02-03T10:30:58;2.58;;;0.80;;
21943;SDS011;11136;48.778;9.126;2023-02-03T10:33:27;0.60;;;0.60;;
21943;SDS011;11136;48.778;9.126;2023-02-03T10:36:01;2.17;;;0.70;;
21943;SDS011;11136;48.778;9.126;2023-02-03T10:38:39;2.00;;;0.85;;
21943;SDS011;11136;48.778;9.126;2023-02-03T10:41:09;1.27;;;0.73;;
21943;SDS011;11136;48.778;9.126;2023-02-03T10:43:35;0.55;;;0.40;;
21943;SDS011;11136;48.778;9.126;2023-02-03T10:46:19;0.43;;;0.43;;
21943;SDS011;11136;48.778;9.126;2023-02-03T10:48:51;2.35;;;0.68;;
21943;SDS011;11136;48.778;9.126;2023-02-03T10:51:24;1.98;;;0.90;;
21943;SDS011;11136;48.778;9.126;2023-02-03T10:53:52;1.08;;;0.45;;
21943;SDS011;11136;48.778;9.126;2023-02-03T10:56:23;0.35;;;0.35;;
21943;SDS011;11136;48.778;9.126;2023-02-03T10:58:55;0.60;;;0.40;;
21943;SDS011;11136;48.778;9.126;2023-02-03T11:01:25;0.60;;;0.60;;
21943;SDS011;11136;48.778;9.126;2023-02-03T11:06:23;1.27;;;1.13;;
21943;SDS011;11136;48.778;9.126;2023-02-03T11:08:49;2.08;;;0.70;;
21943;SDS011;11136;48.778;9.126;2023-02-03T11:14:16;0.57;;;0.40;;
21943;SDS011;11136;48.778;9.126;2023-02-03T11:16:41;0.70;;;0.70;;
21943;SDS011;11136;48.778;9.126;2023-02-03T11:21:44;2.45;;;0.70;;
21943;SDS011;11136;48.778;9.126;2023-02-03T11:26:45;0.40;;;0.40;;
21943;SDS011;11136;48.778;9.126;2023-02-03T11:29:20;1.75;;;0.70;;
21943;SDS011;11136;48.778;9.126;2023-02-03T11:31:50;1.55;;;0.38;;
21943;SDS011;11136;48.778;9.126;2023-02-03T11:34:18;1.40;;;0.60;;
21943;SDS011;11136;48.778;9.126;2023-02-03T11:36:48;1.73;;;0.87;;
21943;SDS011;11136;48.778;9.126;2023-02-03T11:39:23;0.70;;;0.65;;
21943;SDS011;11136;48.778;9.126;2023-02-03T11:41:52;1.33;;;0.80;;
21943;SDS011;11136;48.778;9.126;2023-02-03T11:44:22;2.42;;;0.50;;
21943;SDS011;11136;48.778;9.126;2023-02-03T11:46:54;0.60;;;0.60;;
21943;SDS011;11136;48.778;9.126;2023-02-03T11:49:31;0.40;;;0.40;;
21943;SDS011;11136;48.778;9.126;2023-02-03T11:57:52;0.52;;;0.30;;
21943;SDS011;11136;48.778;9.126;2023-02-03T12:06:46;0.50;;;0.50;;
21943;SDS011;11136;48.778;9.126;2023-02-03T12:20:37;2.42;;;0.50;;
21943;SDS011;11136;48.778;9.126;2023-02-03T12:23:10;0.40;;;0.40;;
21943;SDS011;11136;48.778;9.126;2023-02-03T12:25:59;0.47;;;0.32;;
21943;SDS011;11136;48.778;9.126;2023-02-03T12:29:01;0.80;;;0.60;;
21943;SDS011;11136;48.778;9.126;2023-02-03T12:36:44;4.88;;;1.30;;
21943;SDS011;11136;48.778;9.126;2023-02-03T12:41:59;0.63;;;0.52;;
21943;SDS011;11136;48.778;9.126;2023-02-03T12:50:15;0.82;;;0.52;;
21943;SDS011;11136;48.778;9.126;2023-02-03T12:52:50;0.38;;;0.38;;
21943;SDS011;11136;48.778;9.126;2023-02-03T12:55:27;0.50;;;0.50;;
21943;SDS011;11136;48.778;9.126;2023-02-03T12:57:59;0.57;;;0.57;;
21943;SDS011;11136;48.778;9.126;2023-02-03T13:08:53;0.20;;;0.20;;
21943;SDS011;11136;48.778;9.126;2023-02-03T13:11:36;0.75;;;0.50;;
21943;SDS011;11136;48.778;9.126;2023-02-03T13:16:51;0.63;;;0.50;;
21943;SDS011;11136;48.778;9.126;2023-02-03T13:19:20;0.73;;;0.63;;
21943;SDS011;11136;48.778;9.126;2023-02-03T13:21:48;0.68;;;0.52;;
21943;SDS011;11136;48.778;9.126;2023-02-03T13:24:14;0.73;;;0.60;;
21943;SDS011;11136;48.778;9.126;2023-02-03T13:35:20;0.45;;;0.45;;
21943;SDS011;11136;48.778;9.126;2023-02-03T13:42:57;0.65;;;0.40;;
21943;SDS011;11136;48.778;9.126;2023-02-03T13:45:30;0.68;;;0.60;;
21943;SDS011;11136;48.778;9.126;2023-02-03T13:48:00;0.50;;;0.50;;
21943;SDS011;11136;48.778;9.126;2023-02-03T13:50:35;0.82;;;0.45;;
21943;SDS011;11136;48.778;9.126;2023-02-03T13:53:15;1.77;;;0.60;;
21943;SDS011;11136;48.778;9.126;2023-02-03T13:55:52;2.80;;;0.50;;
21943;SDS011;11136;48.778;9.126;2023-02-03T13:58:23;0.45;;;0.45;;
21943;SDS011;11136;48.778;9.126;2023-02-03T14:03:56;0.50;;;0.43;;
21943;SDS011;11136;48.778;9.126;2023-02-03T14:06:03;0.73;;;0.55;;
21943;SDS011;11136;48.778;9.126;2023-02-03T14:19:12;0.30;;;0.30;;
21943;SDS011;11136;48.778;9.126;2023-02-03T14:22:07;0.25;;;0.25;;
21943;SDS011;11136;48.778;9.126;2023-02-03T14:24:41;3.13;;;0.32;;
21943;SDS011;11136;48.778;9.126;2023-02-03T14:27:22;3.95;;;1.25;;
21943;SDS011;11136;48.778;9.126;2023-02-03T14:30:03;0.90;;;0.40;;
21943;SDS011;11136;48.778;9.126;2023-02-03T14:32:48;2.05;;;0.50;;
21943;SDS011;11136;48.778;9.126;2023-02-03T14:35:23;0.40;;;0.28;;
21943;SDS011;11136;48.778;9.126;2023-02-03T14:38:01;0.30;;;0.30;;
21943;SDS011;11136;48.778;9.126;2023-02-03T14:43:38;0.47;;;0.30;;
21943;SDS011;11136;48.778;9.126;2023-02-03T14:49:05;1.48;;;0.60;;
21943;SDS011;11136;48.778;9.126;2023-02-03T15:05:35;2.08;;;0.32;;
21943;SDS011;11136;48.778;9.126;2023-02-03T15:10:57;0.28;;;0.28;;
21943;SDS011;11136;48.778;9.126;2023-02-03T15:13:26;0.15;;;0.15;;
21943;SDS011;11136;48.778;9.126;2023-02-03T15:16:00;0.47;;;0.40;;
21943;SDS011;11136;48.778;9.126;2023-02-03T15:18:29;0.43;;;0.30;;
21943;SDS011;11136;48.778;9.126;2023-02-03T15:20:56;1.55;;;0.35;;
21943;SDS011;11136;48.778;9.126;2023-02-03T15:23:23;0.73;;;0.38;;
21943;SDS011;11136;48.778;9.126;2023-02-03T15:25:54;1.05;;;0.40;;
21943;SDS011;11136;48.778;9.126;2023-02-03T15:28:25;0.75;;;0.55;;
21943;SDS011;11136;48.778;9.126;2023-02-03T15:33:30;0.80;;;0.30;;
21943;SDS011;11136;48.778;9.126;2023-02-03T15:36:00;0.50;;;0.50;;
21943;SDS011;11136;48.778;9.126;2023-02-03T15:38:35;0.60;;;0.60;;
21943;SDS011;11136;48.778;9.126;2023-02-03T15:41:05;2.83;;;0.63;;
21943;SDS011;11136;48.778;9.126;2023-02-03T15:43:39;0.75;;;0.40;;
21943;SDS011;11136;48.778;9.126;2023-02-03T15:46:16;0.80;;;0.80;;
21943;SDS011;11136;48.778;9.126;2023-02-03T15:48:50;1.30;;;0.57;;
21943;SDS011;11136;48.778;9.126;2023-02-03T15:51:22;0.57;;;0.55;;
21943;SDS011;11136;48.778;9.126;2023-02-03T15:56:41;1.30;;;0.43;;
21943;SDS011;11136;48.778;9.126;2023-02-03T16:01:53;0.47;;;0.43;;
21943;SDS011;11136;48.778;9.126;2023-02-03T16:04:20;0.63;;;0.60;;
21943;SDS011;11136;48.778;9.126;2023-02-03T16:06:48;0.55;;;0.40;;
21943;SDS011;11136;48.778;9.126;2023-02-03T16:09:50;0.25;;;0.25;;
21943;SDS011;11136;48.778;9.126;2023-02-03T16:12:16;0.60;;;0.40;;
21943;SDS011;11136;48.778;9.126;2023-02-03T16:14:50;0.35;;;0.35;;
21943;SDS011;11136;48.778;9.126;2023-02-03T16:17:34;0.50;;;0.50;;
21943;SDS011;11136;48.778;9.126;2023-02-03T16:23:22;1.42;;;0.40;;
21943;SDS011;11136;48.778;9.126;2023-02-03T16:25:27;1.37;;;0.83;;
21943;SDS011;11136;48.778;9.126;2023-02-03T16:30:54;1.27;;;0.65;;
21943;SDS011;11136;48.778;9.126;2023-02-03T16:33:45;0.80;;;0.80;;
21943;SDS011;11136;48.778;9.126;2023-02-03T16:36:32;0.30;;;0.30;;
21943;SDS011;11136;48.778;9.126;2023-02-03T16:39:16;1.70;;;0.57;;
21943;SDS011;11136;48.778;9.126;2023-02-03T16:42:06;0.30;;;0.30;;
21943;SDS011;11136;48.778;9.126;2023-02-03T16:44:56;1.33;;;0.60;;
21943;SDS011;11136;48.778;9.126;2023-02-03T16:47:40;0.60;;;0.60;;
21943;SDS011;11136;48.778;9.126;2023-02-03T16:50:27;0.45;;;0.45;;
21943;SDS011;11136;48.778;9.126;2023-02-03T16:53:16;1.27;;;0.50;;
21943;SDS011;11136;48.778;9.126;2023-02-03T16:55:44;0.75;;;0.63;;
21943;SDS011;11136;48.778;9.126;2023-02-03T16:58:10;1.92;;;1.33;;
21943;SDS011;11136;48.778;9.126;2023-02-03T17:00:40;2.50;;;0.70;;
21943;SDS011;11136;48.778;9.126;2023-02-03T17:03:11;0.50;;;0.50;;
21943;SDS011;11136;48.778;9.126;2023-02-03T17:05:42;1.25;;;0.80;;
21943;SDS011;11136;48.778;9.126;2023-02-03T17:08:09;0.75;;;0.60;;
21943;SDS011;11136;48.778;9.126;2023-02-03T17:10:36;0.50;;;0.50;;
21943;SDS011;11136;48.778;9.126;2023-02-03T17:13:04;0.68;;;0.50;;
21943;SDS011;11136;48.778;9.126;2023-02-03T17:15:30;1.55;;;0.80;;
21943;SDS011;11136;48.778;9.126;2023-02-03T17:17:58;0.50;;;0.43;;
21943;SDS011;11136;48.778;9.126;2023-02-03T17:20:25;0.80;;;0.65;;
21943;SDS011;11136;48.778;9.126;2023-02-03T17:22:51;0.60;;;0.60;;
21943;SDS011;11136;48.778;9.126;2023-02-03T17:25:18;0.50;;;0.50;;
21943;SDS011;11136;48.778;9.126;2023-02-03T17:27:45;1.60;;;0.63;;
21943;SDS011;11136;48.778;9.126;2023-02-03T17:30:11;0.52;;;0.40;;
21943;SDS011;11136;48.778;9.126;2023-02-03T17:32:37;0.70;;;0.70;;
21943;SDS011;11136;48.778;9.126;2023-02-03T17:35:03;1.50;;;0.57;;
21943;SDS011;11136;48.778;9.126;2023-02-03T17:37:33;0.68;;;0.57;;
21943;SDS011;11136;48.778;9.126;2023-02-03T17:40:00;0.80;;;0.63;;